createdAt,value
2018-06-13T00:00:45.558Z,21.55
2018-06-13T00:03:13.356Z,20.00
2018-06-13T00:05:42.179Z,20.55
2018-06-13T00:08:10.743Z,20.62
2018-06-13T00:10:44.892Z,20.85
2018-06-13T00:13:17.392Z,20.85
2018-06-13T00:15:45.880Z,20.95
2018-06-13T00:18:18.307Z,19.73
2018-06-13T00:20:50.016Z,29.70
2018-06-13T00:23:18.102Z,20.43
2018-06-13T00:25:46.941Z,20.10
2018-06-13T00:28:14.904Z,19.40
2018-06-13T00:30:46.691Z,19.60
2018-06-13T00:33:15.204Z,21.85
2018-06-13T00:35:48.250Z,20.85
2018-06-13T00:48:00.686Z,22.00
2018-06-13T00:50:33.418Z,23.10
2018-06-13T00:53:05.634Z,22.40
2018-06-13T00:55:33.084Z,21.35
2018-06-13T00:58:00.770Z,24.60
2018-06-13T01:00:32.621Z,21.75
2018-06-13T01:03:00.669Z,22.05
2018-06-13T01:05:28.331Z,22.25
2018-06-13T01:07:56.384Z,20.88
2018-06-13T01:20:09.010Z,21.37
2018-06-13T01:22:36.404Z,23.25
2018-06-13T01:25:08.218Z,21.20
2018-06-13T01:30:09.708Z,20.77
2018-06-13T01:32:37.762Z,21.25
2018-06-13T01:35:05.158Z,21.48
2018-06-13T01:37:37.062Z,20.48
2018-06-13T01:40:04.928Z,20.77
2018-06-13T01:42:32.744Z,20.85
2018-06-13T01:45:01.687Z,19.60
2018-06-13T01:47:29.134Z,21.68
2018-06-13T01:49:57.784Z,21.90
2018-06-13T01:52:25.534Z,21.82
2018-06-13T01:54:54.270Z,22.37
2018-06-13T01:57:22.788Z,22.80
2018-06-13T01:59:54.948Z,21.65
2018-06-13T02:02:22.377Z,22.07
2018-06-13T02:04:49.675Z,21.02
2018-06-13T02:07:17.078Z,21.65
2018-06-13T02:09:45.401Z,21.87
2018-06-13T02:12:12.769Z,22.40
2018-06-13T02:14:40.661Z,21.65
2018-06-13T02:17:16.549Z,21.17
2018-06-13T02:19:43.996Z,22.40
2018-06-13T02:22:17.549Z,20.90
2018-06-13T02:24:44.941Z,20.97
2018-06-13T02:27:12.996Z,21.15
2018-06-13T02:29:41.381Z,21.45
2018-06-13T02:32:08.779Z,20.55
2018-06-13T02:34:36.476Z,22.25
2018-06-13T02:37:04.048Z,20.70
2018-06-13T02:39:31.469Z,21.97
2018-06-13T02:41:59.009Z,22.25
2018-06-13T02:44:31.741Z,20.35
2018-06-13T02:46:59.620Z,21.50
2018-06-13T02:49:27.078Z,20.80
2018-06-13T02:51:55.018Z,21.20
2018-06-13T02:54:24.786Z,21.23
2018-06-13T02:56:54.184Z,23.38
2018-06-13T02:59:21.725Z,21.90
2018-06-13T03:01:50.353Z,20.68
2018-06-13T03:04:19.393Z,21.02
2018-06-13T03:06:47.403Z,21.40
2018-06-13T03:19:02.203Z,22.17
2018-06-13T03:21:29.671Z,22.30
2018-06-13T03:23:57.207Z,23.75
2018-06-13T03:26:24.672Z,21.37
2018-06-13T03:28:52.180Z,22.73
2018-06-13T03:31:26.424Z,23.02
2018-06-13T03:33:54.344Z,22.40
2018-06-13T03:46:11.123Z,21.60
2018-06-13T03:48:38.810Z,23.30
2018-06-13T03:51:07.092Z,23.10
2018-06-13T03:53:35.227Z,22.62
2018-06-13T04:05:53.149Z,22.70
2018-06-13T04:08:21.110Z,22.60
2018-06-13T04:10:50.333Z,22.60
2018-06-13T04:13:22.750Z,22.98
2018-06-13T04:15:51.516Z,26.00
2018-06-13T04:18:19.150Z,24.35
2018-06-13T04:20:46.955Z,21.45
2018-06-13T04:23:18.819Z,21.90
2018-06-13T04:25:54.669Z,24.92
2018-06-13T04:28:24.434Z,21.50
2018-06-13T04:30:56.319Z,23.47
2018-06-13T04:33:24.914Z,24.02
2018-06-13T04:35:52.559Z,22.52
2018-06-13T04:38:24.146Z,21.00
2018-06-13T04:40:52.201Z,24.12
2018-06-13T04:43:21.670Z,22.10
2018-06-13T04:45:50.633Z,23.40
2018-06-13T04:48:22.733Z,21.62
2018-06-13T04:50:50.998Z,24.63
2018-06-13T04:53:23.269Z,27.07
2018-06-13T04:55:53.134Z,22.27
2018-06-13T04:58:20.630Z,22.32
2018-06-13T05:00:54.108Z,23.60
2018-06-13T05:03:23.720Z,22.90
2018-06-13T05:05:51.237Z,22.55
2018-06-13T05:08:18.544Z,22.48
2018-06-13T05:10:45.809Z,23.38
2018-06-13T05:13:13.110Z,22.85
2018-06-13T05:15:40.412Z,21.40
2018-06-13T05:18:07.723Z,22.65
2018-06-13T05:20:34.995Z,22.30
2018-06-13T05:23:02.338Z,23.67
2018-06-13T05:25:29.635Z,22.35
2018-06-13T05:27:57.780Z,22.55
2018-06-13T05:30:25.105Z,23.52
2018-06-13T05:32:52.371Z,22.80
2018-06-13T05:35:20.358Z,24.30
2018-06-13T05:37:47.669Z,22.95
2018-06-13T05:40:14.977Z,22.80
2018-06-13T05:42:42.262Z,24.35
2018-06-13T05:45:09.606Z,22.30
2018-06-13T05:47:36.942Z,21.02
2018-06-13T05:50:04.295Z,22.65
2018-06-13T05:52:31.603Z,19.90
2018-06-13T05:54:58.920Z,21.20
2018-06-13T05:57:26.326Z,21.42
2018-06-13T05:59:53.666Z,21.25
2018-06-13T06:02:20.968Z,22.80
2018-06-13T06:04:48.277Z,20.45
2018-06-13T06:07:16.245Z,21.45
2018-06-13T06:09:43.572Z,21.35
2018-06-13T06:12:10.892Z,20.48
2018-06-13T06:14:38.236Z,21.65
2018-06-13T06:17:05.551Z,20.52
2018-06-13T06:19:32.871Z,20.45
2018-06-13T06:22:00.221Z,20.68
2018-06-13T06:24:27.546Z,20.43
2018-06-13T06:26:54.852Z,21.23
2018-06-13T06:29:22.124Z,20.48
2018-06-13T06:31:49.431Z,22.82
2018-06-13T06:34:17.078Z,21.82
2018-06-13T06:36:44.369Z,21.50
2018-06-13T06:39:12.714Z,20.85
2018-06-13T06:41:40.009Z,21.27
2018-06-13T06:44:07.428Z,23.00
2018-06-13T06:46:34.706Z,21.60
2018-06-13T06:49:02.018Z,21.57
2018-06-13T06:51:29.344Z,21.48
2018-06-13T06:53:56.662Z,20.90
2018-06-13T06:56:23.986Z,22.05
2018-06-13T06:58:51.301Z,22.77
2018-06-13T07:01:18.904Z,21.48
2018-06-13T07:03:46.230Z,25.82
2018-06-13T07:06:13.521Z,23.05
2018-06-13T07:08:40.813Z,21.20
2018-06-13T07:11:08.148Z,20.75
2018-06-13T07:13:35.990Z,21.68
2018-06-13T07:16:03.342Z,20.70
2018-06-13T07:18:30.607Z,22.20
2018-06-13T07:20:57.930Z,22.60
2018-06-13T07:23:25.277Z,21.70
2018-06-13T07:25:52.587Z,22.13
2018-06-13T07:28:20.116Z,20.15
2018-06-13T07:30:47.444Z,23.65
2018-06-13T07:33:14.771Z,21.90
2018-06-13T07:35:42.113Z,20.27
2018-06-13T07:38:09.443Z,19.95
2018-06-13T07:40:36.779Z,21.60
2018-06-13T07:43:04.108Z,28.55
2018-06-13T07:45:31.434Z,22.35
2018-06-13T07:47:58.776Z,23.00
2018-06-13T07:50:26.079Z,22.40
2018-06-13T07:52:53.622Z,21.95
2018-06-13T07:55:21.176Z,24.57
2018-06-13T07:57:48.479Z,21.82
2018-06-13T08:00:15.766Z,21.37
2018-06-13T08:02:43.055Z,19.12
2018-06-13T08:05:10.421Z,19.80
2018-06-13T08:07:37.748Z,20.95
2018-06-13T08:10:05.054Z,19.85
2018-06-13T08:12:32.320Z,19.87
2018-06-13T08:14:59.620Z,19.32
2018-06-13T08:17:26.986Z,19.20
2018-06-13T08:19:54.965Z,19.57
2018-06-13T08:22:22.246Z,19.95
2018-06-13T08:24:53.531Z,20.85
2018-06-13T08:27:20.967Z,20.65
2018-06-13T08:29:48.817Z,22.02
2018-06-13T08:32:16.128Z,19.52
2018-06-13T08:34:43.380Z,19.50
2018-06-13T08:37:10.703Z,18.48
2018-06-13T08:39:37.997Z,20.05
2018-06-13T08:42:05.351Z,22.22
2018-06-13T08:44:32.640Z,20.08
2018-06-13T08:46:59.910Z,20.30
2018-06-13T08:49:27.581Z,21.40
2018-06-13T08:51:54.913Z,22.60
2018-06-13T08:54:22.201Z,22.65
2018-06-13T08:56:49.496Z,20.30
2018-06-13T08:59:16.770Z,19.48
2018-06-13T09:01:44.064Z,20.80
2018-06-13T09:04:11.376Z,21.40
2018-06-13T09:06:38.652Z,20.02
2018-06-13T09:09:06.858Z,24.82
2018-06-13T09:11:34.409Z,21.73
2018-06-13T09:14:01.735Z,22.32
2018-06-13T09:16:29.546Z,21.75
2018-06-13T09:18:56.872Z,22.35
2018-06-13T09:21:24.187Z,24.07
2018-06-13T09:23:51.519Z,21.30
2018-06-13T09:26:18.807Z,24.40
2018-06-13T09:28:46.123Z,22.30
2018-06-13T09:31:13.441Z,21.37
2018-06-13T09:33:40.735Z,22.37
2018-06-13T09:36:08.006Z,22.10
2018-06-13T09:38:35.286Z,24.25
2018-06-13T09:41:02.578Z,23.45
2018-06-13T09:43:30.118Z,20.95
2018-06-13T09:46:03.561Z,22.58
2018-06-13T09:48:33.244Z,22.13
2018-06-13T09:51:01.207Z,23.38
2018-06-13T09:53:29.199Z,20.62
2018-06-13T09:55:56.905Z,23.83
2018-06-13T09:58:24.832Z,21.42
2018-06-13T10:00:57.598Z,19.75
2018-06-13T10:03:25.612Z,21.05
2018-06-13T10:05:53.602Z,21.80
2018-06-13T10:08:21.440Z,20.72
2018-06-13T10:10:50.572Z,22.35
2018-06-13T10:13:18.055Z,20.35
2018-06-13T10:15:50.188Z,21.75
2018-06-13T10:18:17.716Z,21.75
2018-06-13T10:30:31.400Z,20.70
2018-06-13T10:32:58.881Z,20.32
2018-06-13T10:35:32.700Z,24.37
2018-06-13T10:38:00.669Z,22.37
2018-06-13T10:40:28.501Z,20.45
2018-06-13T10:42:56.372Z,21.23
2018-06-13T10:45:23.824Z,21.50
2018-06-13T10:57:36.452Z,19.10
2018-06-13T11:00:03.870Z,20.40
2018-06-13T11:02:35.171Z,19.40
2018-06-13T11:05:03.223Z,20.00
2018-06-13T11:07:30.638Z,21.97
2018-06-13T11:09:58.168Z,21.62
2018-06-13T11:12:25.569Z,22.07
2018-06-13T11:14:55.294Z,20.32
2018-06-13T11:17:22.744Z,20.40
2018-06-13T11:19:50.114Z,20.52
2018-06-13T11:22:24.601Z,20.55
2018-06-13T11:24:52.093Z,24.92
2018-06-13T11:27:24.775Z,21.65
2018-06-13T11:29:58.215Z,22.22
2018-06-13T11:32:30.700Z,23.38
2018-06-13T11:34:58.195Z,19.90
2018-06-13T11:37:27.612Z,19.92
2018-06-13T11:39:55.587Z,18.87
2018-06-13T11:42:23.597Z,21.25
2018-06-13T11:44:51.802Z,19.10
2018-06-13T11:47:19.608Z,19.65
2018-06-13T11:49:47.038Z,21.23
2018-06-13T11:52:14.468Z,19.15
2018-06-13T11:54:42.460Z,19.75
2018-06-13T11:57:09.919Z,19.30
2018-06-13T11:59:37.437Z,20.62
2018-06-13T12:02:04.881Z,21.10
2018-06-13T12:04:33.141Z,20.70
2018-06-13T12:07:00.497Z,20.95
2018-06-13T12:09:27.815Z,20.80
2018-06-13T12:11:56.116Z,20.47
2018-06-13T12:14:23.630Z,20.20
2018-06-13T12:16:51.004Z,21.87
2018-06-13T12:19:18.681Z,19.00
2018-06-13T12:21:50.026Z,19.77
2018-06-13T12:24:17.373Z,23.42
2018-06-13T12:26:45.735Z,22.03
2018-06-13T12:29:13.115Z,20.23
2018-06-13T12:31:40.620Z,19.85
2018-06-13T12:34:08.018Z,21.70
2018-06-13T12:36:35.430Z,20.10
2018-06-13T12:39:02.853Z,22.33
2018-06-13T12:41:30.155Z,19.00
2018-06-13T12:43:57.681Z,19.75
2018-06-13T12:46:24.996Z,20.30
2018-06-13T12:48:52.266Z,18.50
2018-06-13T12:51:19.572Z,20.08
2018-06-13T12:53:47.223Z,18.00
2018-06-13T12:56:14.656Z,19.52
2018-06-13T12:58:42.021Z,20.80
2018-06-13T13:01:09.405Z,19.25
2018-06-13T13:03:36.722Z,20.05
2018-06-13T13:06:04.059Z,19.73
2018-06-13T13:08:31.358Z,18.40
2018-06-13T13:10:58.680Z,19.95
2018-06-13T13:13:26.008Z,19.12
2018-06-13T13:15:53.310Z,19.65
2018-06-13T13:18:20.616Z,21.73
2018-06-13T13:20:48.136Z,20.20
2018-06-13T13:23:15.487Z,19.50
2018-06-13T13:25:42.802Z,23.38
2018-06-13T13:28:10.127Z,20.80
2018-06-13T13:30:37.413Z,19.80
2018-06-13T13:33:04.848Z,20.73
2018-06-13T13:35:32.323Z,22.52
2018-06-13T13:37:59.702Z,19.60
2018-06-13T13:40:27.010Z,20.57
2018-06-13T13:42:54.294Z,20.25
2018-06-13T13:45:21.733Z,22.70
2018-06-13T13:47:49.065Z,21.65
2018-06-13T13:50:16.377Z,20.00
2018-06-13T13:52:43.759Z,19.97
2018-06-13T13:55:11.075Z,19.10
2018-06-13T13:57:38.438Z,22.45
2018-06-13T14:00:05.937Z,18.98
2018-06-13T14:02:33.336Z,22.07
2018-06-13T14:05:00.666Z,20.02
2018-06-13T14:07:27.986Z,19.75
2018-06-13T14:09:55.378Z,20.20
2018-06-13T14:12:22.790Z,19.67
2018-06-13T14:14:50.078Z,19.80
2018-06-13T14:17:17.454Z,21.85
2018-06-13T14:19:44.821Z,20.85
2018-06-13T14:22:12.312Z,21.73
2018-06-13T14:24:39.764Z,20.30
2018-06-13T14:27:07.073Z,22.35
2018-06-13T14:29:34.393Z,19.17
2018-06-13T14:32:01.708Z,18.12
2018-06-13T14:34:29.020Z,20.10
2018-06-13T14:36:56.417Z,17.35
2018-06-13T14:39:24.070Z,18.50
2018-06-13T14:41:51.612Z,19.17
2018-06-13T14:44:19.053Z,19.10
2018-06-13T14:46:46.542Z,18.30
2018-06-13T14:49:14.649Z,21.40
2018-06-13T14:51:42.253Z,18.92
2018-06-13T14:54:09.787Z,19.40
2018-06-13T14:56:37.273Z,19.30
2018-06-13T14:59:04.664Z,17.57
2018-06-13T15:01:32.240Z,18.65
2018-06-13T15:03:59.671Z,18.05
2018-06-13T15:06:27.037Z,20.80
2018-06-13T15:08:54.814Z,19.65
2018-06-13T15:11:22.213Z,20.08
2018-06-13T15:13:49.561Z,18.32
2018-06-13T15:16:16.943Z,16.65
2018-06-13T15:18:44.329Z,18.20
2018-06-13T15:21:11.712Z,16.87
2018-06-13T15:23:39.151Z,17.92
2018-06-13T15:26:06.594Z,18.15
2018-06-13T15:28:34.740Z,16.50
2018-06-13T15:31:02.035Z,20.70
2018-06-13T15:33:29.414Z,19.50
2018-06-13T15:35:56.791Z,19.40
2018-06-13T15:38:24.492Z,17.87
2018-06-13T15:40:51.866Z,18.73
2018-06-13T15:43:19.230Z,24.57
2018-06-13T15:45:46.790Z,18.50
2018-06-13T15:48:14.170Z,18.03
2018-06-13T15:50:41.617Z,20.48
2018-06-13T15:53:09.083Z,16.97
2018-06-13T15:55:36.428Z,17.30
2018-06-13T15:58:03.884Z,18.30
2018-06-13T16:00:31.293Z,16.93
2018-06-13T16:02:58.666Z,22.07
2018-06-13T16:05:26.172Z,17.70
2018-06-13T16:07:53.585Z,17.30
2018-06-13T16:10:21.018Z,18.30
2018-06-13T16:12:50.085Z,21.10
2018-06-13T16:15:17.608Z,17.90
2018-06-13T16:17:45.000Z,19.07
2018-06-13T16:20:12.573Z,17.90
2018-06-13T16:22:40.022Z,17.80
2018-06-13T16:25:07.417Z,18.05
2018-06-13T16:27:35.032Z,17.50
2018-06-13T16:30:04.356Z,17.90
2018-06-13T16:32:31.748Z,17.00
2018-06-13T16:34:59.262Z,18.35
2018-06-13T16:37:26.888Z,19.25
2018-06-13T16:39:54.315Z,17.85
2018-06-13T16:42:21.682Z,17.98
2018-06-13T16:44:49.076Z,17.92
2018-06-13T16:47:16.473Z,17.60
2018-06-13T16:49:43.809Z,17.00
2018-06-13T16:52:16.556Z,17.73
2018-06-13T16:54:49.509Z,20.57
2018-06-13T16:57:16.862Z,17.82
2018-06-13T16:59:44.252Z,18.73
2018-06-13T17:02:11.665Z,18.10
2018-06-13T17:04:39.080Z,21.37
2018-06-13T17:07:06.885Z,17.90
2018-06-13T17:09:34.254Z,18.75
2018-06-13T17:12:07.392Z,18.98
2018-06-13T17:24:25.356Z,20.60
2018-06-13T17:27:01.740Z,19.23
2018-06-13T17:29:33.180Z,21.85
2018-06-13T17:32:06.733Z,25.55
2018-06-13T17:34:34.346Z,18.95
2018-06-13T17:37:03.996Z,20.27
2018-06-13T17:39:36.203Z,18.00
2018-06-13T17:42:03.976Z,17.02
2018-06-13T17:44:33.870Z,21.23
2018-06-13T17:47:07.441Z,18.48
2018-06-13T17:49:36.066Z,19.20
2018-06-13T17:52:17.250Z,18.35
2018-06-13T17:54:45.283Z,17.30
2018-06-13T18:06:58.272Z,17.20
2018-06-13T18:09:26.267Z,15.28
2018-06-13T18:11:53.823Z,16.20
2018-06-13T18:14:21.849Z,15.45
2018-06-13T18:16:49.841Z,16.20
2018-06-13T18:19:19.248Z,15.10
2018-06-13T18:21:47.866Z,16.32
2018-06-13T18:24:16.533Z,16.42
2018-06-13T18:26:44.764Z,17.23
2018-06-13T18:29:13.253Z,15.00
2018-06-13T18:31:40.876Z,16.02
2018-06-13T18:34:09.950Z,17.27
2018-06-13T18:36:37.953Z,16.55
2018-06-13T18:39:11.347Z,17.20
2018-06-13T18:41:44.446Z,15.68
2018-06-13T18:44:17.693Z,14.70
2018-06-13T18:56:30.820Z,16.42
2018-06-13T18:58:58.576Z,16.30
2018-06-13T19:01:27.766Z,16.30
2018-06-13T19:03:56.497Z,17.05
2018-06-13T19:06:24.027Z,16.67
2018-06-13T19:21:51.899Z,15.90
2018-06-13T19:24:19.576Z,16.15
2018-06-13T19:26:47.248Z,15.98
2018-06-13T19:29:15.698Z,15.65
2018-06-13T19:31:43.220Z,18.07
2018-06-13T19:34:11.424Z,15.20
2018-06-13T19:36:39.630Z,16.40
2018-06-13T19:39:08.409Z,17.12
2018-06-13T19:41:37.454Z,17.02
2018-06-13T19:44:05.550Z,15.75
2018-06-13T19:46:40.913Z,17.12
2018-06-13T19:49:12.639Z,18.25
2018-06-13T19:51:40.794Z,17.77
2018-06-13T19:54:14.779Z,17.05
2018-06-13T19:56:43.801Z,18.65
2018-06-13T19:59:12.048Z,17.67
2018-06-13T20:01:39.718Z,17.52
2018-06-13T20:04:12.469Z,16.70
2018-06-13T20:06:40.948Z,16.80
2018-06-13T20:09:10.490Z,17.40
2018-06-13T20:11:39.437Z,16.65
2018-06-13T20:14:12.716Z,17.00
2018-06-13T20:16:52.443Z,17.37
2018-06-13T20:19:27.532Z,17.15
2018-06-13T20:22:04.512Z,17.20
2018-06-13T20:24:32.204Z,19.77
2018-06-13T20:27:05.471Z,18.20
2018-06-13T20:29:38.234Z,17.42
2018-06-13T20:32:12.105Z,20.85
2018-06-13T20:34:40.849Z,21.80
2018-06-13T20:37:08.457Z,17.65
2018-06-13T20:39:35.990Z,18.92
2018-06-13T20:42:07.840Z,18.55
2018-06-13T20:44:40.744Z,17.40
2018-06-13T20:47:09.251Z,18.60
2018-06-13T20:49:37.317Z,16.95
2018-06-13T20:52:05.237Z,19.00
2018-06-13T20:54:39.507Z,17.70
2018-06-13T20:57:07.028Z,17.12
2018-06-13T20:59:34.476Z,17.45
2018-06-13T21:02:03.354Z,18.12
2018-06-13T21:04:35.950Z,17.67
2018-06-13T21:07:03.529Z,18.25
2018-06-13T21:09:39.763Z,18.95
2018-06-13T21:12:07.660Z,18.60
2018-06-13T21:14:35.922Z,17.90
2018-06-13T21:17:08.487Z,21.15
2018-06-13T21:19:35.912Z,19.15
2018-06-13T21:22:03.506Z,18.42
2018-06-13T21:24:32.841Z,18.55
2018-06-13T21:27:08.579Z,18.52
2018-06-13T21:29:45.354Z,18.00
2018-06-13T21:32:21.909Z,18.50
2018-06-13T21:34:50.069Z,18.32
2018-06-13T21:37:19.695Z,21.57
2018-06-13T21:49:32.588Z,19.92
2018-06-13T21:52:00.111Z,18.95
2018-06-13T21:54:32.089Z,19.30
2018-06-13T21:56:59.687Z,24.20
2018-06-13T21:59:28.470Z,19.17
2018-06-13T22:01:55.977Z,18.55
2018-06-13T22:04:35.473Z,20.20
2018-06-13T22:07:09.362Z,18.15
2018-06-13T22:09:42.272Z,18.65
2018-06-13T22:34:50.324Z,19.80
2018-06-13T22:37:26.694Z,18.45
2018-06-13T22:39:58.547Z,18.10
2018-06-13T22:45:12.398Z,18.70
2018-06-13T22:47:41.039Z,19.45
2018-06-13T22:50:08.550Z,19.40
2018-06-13T22:52:40.495Z,18.40
2018-06-13T22:55:09.109Z,19.20
2018-06-13T22:57:38.353Z,20.05
2018-06-13T23:00:06.648Z,18.65
2018-06-13T23:02:35.202Z,19.98
2018-06-13T23:05:02.663Z,18.02
2018-06-13T23:07:30.756Z,20.37
2018-06-13T23:09:58.135Z,20.02
2018-06-13T23:12:26.124Z,21.77
2018-06-13T23:14:54.071Z,21.65
2018-06-13T23:17:21.552Z,18.55
2018-06-13T23:19:49.050Z,18.20
2018-06-13T23:22:17.019Z,18.62
2018-06-13T23:24:44.528Z,18.60
2018-06-13T23:27:12.704Z,18.77
2018-06-13T23:29:40.288Z,17.87
2018-06-13T23:32:07.701Z,19.70
2018-06-13T23:34:39.872Z,19.40
2018-06-13T23:37:07.617Z,19.23
2018-06-13T23:39:35.674Z,21.70
2018-06-13T23:42:03.169Z,19.55
2018-06-13T23:44:31.540Z,19.55
2018-06-13T23:47:06.471Z,18.32
2018-06-13T23:49:35.401Z,21.48
2018-06-13T23:52:08.459Z,20.52
2018-06-13T23:54:36.588Z,19.85
2018-06-13T23:57:04.113Z,19.30
2018-06-13T23:59:32.407Z,19.55
